Aigle, Switzerland
Current Conditions -  °F | °C
As of 12:50 PM on Thursday 29 Jan 2015 (Local Time) from LSMS Reporting Station
Overcast Overcast  
Wind Chill: 36°   Ceiling: 5000
Heat Index: 36°   Visibility: 6mi
Dew Point: 34°   Wind: 0mph
Humidity: 93%   Direction: NA
Pressure: 29.47"   Gusts: NA
Location:  46.32°N, 6.95°E
Report Text: LSMS 291150Z 00000KT 9999 SCT010 OVC050 02/01 Q0998 R/SNOCLO
Loading
Personal Weather Stations






























Interactive Weather Map New forecast layout! Learn more

10-Day Weather Forecast

Advertisements
Track Severe Weather on mobile